sensor_id;sensor_type;location;lat;lon;timestamp;P1;durP1;ratioP1;P2;durP2;ratioP2
19569;SDS011;9931;51.458;7.256;2023-12-20T00:02:03;24.60;;;16.33;;
19569;SDS011;9931;51.458;7.256;2023-12-20T00:04:28;23.52;;;16.52;;
19569;SDS011;9931;51.458;7.256;2023-12-20T00:06:53;24.63;;;20.27;;
19569;SDS011;9931;51.458;7.256;2023-12-20T00:09:18;28.63;;;18.05;;
19569;SDS011;9931;51.458;7.256;2023-12-20T00:11:43;56.23;;;51.43;;
19569;SDS011;9931;51.458;7.256;2023-12-20T00:14:09;23.83;;;19.10;;
19569;SDS011;9931;51.458;7.256;2023-12-20T00:16:34;21.80;;;14.60;;
19569;SDS011;9931;51.458;7.256;2023-12-20T00:18:59;23.00;;;21.00;;
19569;SDS011;9931;51.458;7.256;2023-12-20T00:21:24;19.13;;;17.73;;
19569;SDS011;9931;51.458;7.256;2023-12-20T00:23:49;22.98;;;17.33;;
19569;SDS011;9931;51.458;7.256;2023-12-20T00:26:15;23.53;;;17.33;;
19569;SDS011;9931;51.458;7.256;2023-12-20T00:28:40;26.73;;;19.10;;
19569;SDS011;9931;51.458;7.256;2023-12-20T00:31:05;22.25;;;15.45;;
19569;SDS011;9931;51.458;7.256;2023-12-20T00:33:30;20.77;;;15.40;;
19569;SDS011;9931;51.458;7.256;2023-12-20T00:35:55;26.07;;;15.03;;
19569;SDS011;9931;51.458;7.256;2023-12-20T00:38:21;21.50;;;14.68;;
19569;SDS011;9931;51.458;7.256;2023-12-20T00:40:46;24.05;;;16.80;;
19569;SDS011;9931;51.458;7.256;2023-12-20T00:43:11;26.08;;;16.83;;
19569;SDS011;9931;51.458;7.256;2023-12-20T00:45:36;21.92;;;11.80;;
19569;SDS011;9931;51.458;7.256;2023-12-20T00:48:02;20.67;;;18.75;;
19569;SDS011;9931;51.458;7.256;2023-12-20T00:50:27;20.92;;;13.70;;
19569;SDS011;9931;51.458;7.256;2023-12-20T00:52:52;26.70;;;18.30;;
19569;SDS011;9931;51.458;7.256;2023-12-20T00:55:19;39.85;;;36.28;;
19569;SDS011;9931;51.458;7.256;2023-12-20T00:57:44;26.53;;;15.30;;
19569;SDS011;9931;51.458;7.256;2023-12-20T01:00:10;69.30;;;16.90;;
19569;SDS011;9931;51.458;7.256;2023-12-20T01:02:35;20.77;;;18.27;;
19569;SDS011;9931;51.458;7.256;2023-12-20T01:05:00;23.98;;;14.75;;
19569;SDS011;9931;51.458;7.256;2023-12-20T01:07:25;26.25;;;12.88;;
19569;SDS011;9931;51.458;7.256;2023-12-20T01:09:50;22.60;;;18.75;;
19569;SDS011;9931;51.458;7.256;2023-12-20T01:12:16;16.02;;;14.65;;
19569;SDS011;9931;51.458;7.256;2023-12-20T01:14:41;21.30;;;16.08;;
19569;SDS011;9931;51.458;7.256;2023-12-20T01:17:07;25.67;;;13.98;;
19569;SDS011;9931;51.458;7.256;2023-12-20T01:19:32;15.80;;;14.30;;
19569;SDS011;9931;51.458;7.256;2023-12-20T01:21:57;15.20;;;13.93;;
19569;SDS011;9931;51.458;7.256;2023-12-20T01:24:22;12.40;;;11.33;;
19569;SDS011;9931;51.458;7.256;2023-12-20T01:26:48;22.75;;;12.93;;
19569;SDS011;9931;51.458;7.256;2023-12-20T01:29:13;23.30;;;16.33;;
19569;SDS011;9931;51.458;7.256;2023-12-20T01:31:39;28.63;;;16.20;;
19569;SDS011;9931;51.458;7.256;2023-12-20T01:34:04;23.15;;;15.90;;
19569;SDS011;9931;51.458;7.256;2023-12-20T01:36:29;19.67;;;16.17;;
19569;SDS011;9931;51.458;7.256;2023-12-20T01:38:54;20.30;;;14.27;;
19569;SDS011;9931;51.458;7.256;2023-12-20T01:41:19;13.57;;;1.58;;
19569;SDS011;9931;51.458;7.256;2023-12-20T01:43:45;20.73;;;2.05;;
19569;SDS011;9931;51.458;7.256;2023-12-20T01:46:10;25.60;;;15.70;;
19569;SDS011;9931;51.458;7.256;2023-12-20T01:48:35;26.10;;;14.60;;
19569;SDS011;9931;51.458;7.256;2023-12-20T01:51:00;20.20;;;12.20;;
19569;SDS011;9931;51.458;7.256;2023-12-20T01:53:26;18.25;;;13.93;;
19569;SDS011;9931;51.458;7.256;2023-12-20T01:55:52;22.83;;;12.30;;
19569;SDS011;9931;51.458;7.256;2023-12-20T01:58:19;22.70;;;16.92;;
19569;SDS011;9931;51.458;7.256;2023-12-20T02:00:44;12.38;;;11.55;;
19569;SDS011;9931;51.458;7.256;2023-12-20T02:03:09;24.17;;;12.60;;
19569;SDS011;9931;51.458;7.256;2023-12-20T02:05:35;21.60;;;16.75;;
19569;SDS011;9931;51.458;7.256;2023-12-20T02:08:01;14.38;;;13.02;;
19569;SDS011;9931;51.458;7.256;2023-12-20T02:10:26;25.35;;;12.05;;
19569;SDS011;9931;51.458;7.256;2023-12-20T02:12:52;15.17;;;13.67;;
19569;SDS011;9931;51.458;7.256;2023-12-20T02:15:17;13.40;;;12.07;;
19569;SDS011;9931;51.458;7.256;2023-12-20T02:17:42;22.85;;;14.05;;
19569;SDS011;9931;51.458;7.256;2023-12-20T02:20:08;35.03;;;11.80;;
19569;SDS011;9931;51.458;7.256;2023-12-20T02:22:33;20.52;;;14.00;;
19569;SDS011;9931;51.458;7.256;2023-12-20T02:24:58;19.13;;;10.98;;
19569;SDS011;9931;51.458;7.256;2023-12-20T02:27:23;24.17;;;11.83;;
19569;SDS011;9931;51.458;7.256;2023-12-20T02:29:49;24.25;;;9.18;;
19569;SDS011;9931;51.458;7.256;2023-12-20T02:32:14;15.90;;;12.27;;
19569;SDS011;9931;51.458;7.256;2023-12-20T02:34:40;20.33;;;12.60;;
19569;SDS011;9931;51.458;7.256;2023-12-20T02:37:05;22.93;;;12.40;;
19569;SDS011;9931;51.458;7.256;2023-12-20T02:39:30;16.73;;;8.93;;
19569;SDS011;9931;51.458;7.256;2023-12-20T02:41:56;23.48;;;13.88;;
19569;SDS011;9931;51.458;7.256;2023-12-20T02:44:21;20.45;;;11.45;;
19569;SDS011;9931;51.458;7.256;2023-12-20T02:46:46;26.45;;;12.77;;
19569;SDS011;9931;51.458;7.256;2023-12-20T02:49:11;21.25;;;13.75;;
19569;SDS011;9931;51.458;7.256;2023-12-20T02:51:36;21.95;;;14.02;;
19569;SDS011;9931;51.458;7.256;2023-12-20T02:54:03;18.38;;;11.15;;
19569;SDS011;9931;51.458;7.256;2023-12-20T02:56:29;20.70;;;11.10;;
19569;SDS011;9931;51.458;7.256;2023-12-20T02:58:54;17.70;;;11.60;;
19569;SDS011;9931;51.458;7.256;2023-12-20T03:01:19;21.45;;;12.68;;
19569;SDS011;9931;51.458;7.256;2023-12-20T03:03:44;14.73;;;13.40;;
19569;SDS011;9931;51.458;7.256;2023-12-20T03:06:09;14.23;;;12.10;;
19569;SDS011;9931;51.458;7.256;2023-12-20T03:08:35;15.13;;;9.47;;
19569;SDS011;9931;51.458;7.256;2023-12-20T03:11:00;18.77;;;1.65;;
19569;SDS011;9931;51.458;7.256;2023-12-20T03:13:25;15.40;;;1.53;;
19569;SDS011;9931;51.458;7.256;2023-12-20T03:15:50;24.53;;;12.50;;
19569;SDS011;9931;51.458;7.256;2023-12-20T03:18:15;19.83;;;11.07;;
19569;SDS011;9931;51.458;7.256;2023-12-20T03:20:40;25.00;;;12.68;;
19569;SDS011;9931;51.458;7.256;2023-12-20T03:23:06;18.58;;;12.00;;
19569;SDS011;9931;51.458;7.256;2023-12-20T03:25:31;11.82;;;10.82;;
19569;SDS011;9931;51.458;7.256;2023-12-20T03:27:57;8.10;;;0.90;;
19569;SDS011;9931;51.458;7.256;2023-12-20T03:30:22;60.53;;;4.63;;
19569;SDS011;9931;51.458;7.256;2023-12-20T03:32:47;18.13;;;1.63;;
19569;SDS011;9931;51.458;7.256;2023-12-20T03:35:12;16.53;;;1.53;;
19569;SDS011;9931;51.458;7.256;2023-12-20T03:37:37;16.40;;;1.55;;
19569;SDS011;9931;51.458;7.256;2023-12-20T03:40:02;17.37;;;1.57;;
19569;SDS011;9931;51.458;7.256;2023-12-20T03:42:28;18.08;;;1.67;;
19569;SDS011;9931;51.458;7.256;2023-12-20T03:44:53;18.63;;;1.63;;
19569;SDS011;9931;51.458;7.256;2023-12-20T03:47:18;15.65;;;1.50;;
19569;SDS011;9931;51.458;7.256;2023-12-20T03:49:43;18.53;;;1.63;;
19569;SDS011;9931;51.458;7.256;2023-12-20T03:52:08;19.95;;;1.80;;
19569;SDS011;9931;51.458;7.256;2023-12-20T03:54:35;15.80;;;1.40;;
19569;SDS011;9931;51.458;7.256;2023-12-20T03:57:00;3.97;;;0.63;;
19569;SDS011;9931;51.458;7.256;2023-12-20T03:59:25;13.20;;;1.30;;
19569;SDS011;9931;51.458;7.256;2023-12-20T04:01:50;16.83;;;1.53;;
19569;SDS011;9931;51.458;7.256;2023-12-20T04:04:15;15.50;;;1.47;;
19569;SDS011;9931;51.458;7.256;2023-12-20T04:06:40;5.05;;;0.63;;
19569;SDS011;9931;51.458;7.256;2023-12-20T04:09:06;4.55;;;0.70;;
19569;SDS011;9931;51.458;7.256;2023-12-20T04:11:31;17.83;;;1.57;;
19569;SDS011;9931;51.458;7.256;2023-12-20T04:13:56;16.90;;;1.60;;
19569;SDS011;9931;51.458;7.256;2023-12-20T04:16:21;17.58;;;1.60;;
19569;SDS011;9931;51.458;7.256;2023-12-20T04:18:46;23.13;;;2.10;;
19569;SDS011;9931;51.458;7.256;2023-12-20T04:21:12;19.25;;;1.77;;
19569;SDS011;9931;51.458;7.256;2023-12-20T04:23:37;18.58;;;1.67;;
19569;SDS011;9931;51.458;7.256;2023-12-20T04:26:02;18.20;;;1.70;;
19569;SDS011;9931;51.458;7.256;2023-12-20T04:28:27;16.58;;;1.50;;
19569;SDS011;9931;51.458;7.256;2023-12-20T04:30:55;17.40;;;1.52;;
19569;SDS011;9931;51.458;7.256;2023-12-20T04:33:20;6.85;;;0.88;;
19569;SDS011;9931;51.458;7.256;2023-12-20T04:35:45;25.23;;;2.17;;
19569;SDS011;9931;51.458;7.256;2023-12-20T04:38:11;16.58;;;1.52;;
19569;SDS011;9931;51.458;7.256;2023-12-20T04:40:36;12.63;;;1.20;;
19569;SDS011;9931;51.458;7.256;2023-12-20T04:43:01;12.70;;;1.13;;
19569;SDS011;9931;51.458;7.256;2023-12-20T04:45:26;20.65;;;1.77;;
19569;SDS011;9931;51.458;7.256;2023-12-20T04:47:51;16.60;;;1.60;;
19569;SDS011;9931;51.458;7.256;2023-12-20T04:50:16;65.07;;;4.90;;
19569;SDS011;9931;51.458;7.256;2023-12-20T04:52:42;20.20;;;1.80;;
19569;SDS011;9931;51.458;7.256;2023-12-20T04:55:07;5.85;;;0.73;;
19569;SDS011;9931;51.458;7.256;2023-12-20T04:57:33;22.75;;;2.00;;
19569;SDS011;9931;51.458;7.256;2023-12-20T04:59:58;12.38;;;1.23;;
19569;SDS011;9931;51.458;7.256;2023-12-20T05:02:23;19.00;;;1.70;;
19569;SDS011;9931;51.458;7.256;2023-12-20T05:04:49;25.40;;;2.13;;
19569;SDS011;9931;51.458;7.256;2023-12-20T05:07:14;21.92;;;1.92;;
19569;SDS011;9931;51.458;7.256;2023-12-20T05:09:39;19.55;;;1.75;;
19569;SDS011;9931;51.458;7.256;2023-12-20T05:12:04;19.57;;;1.70;;
19569;SDS011;9931;51.458;7.256;2023-12-20T05:14:29;16.50;;;1.60;;
19569;SDS011;9931;51.458;7.256;2023-12-20T05:16:55;21.05;;;1.75;;
19569;SDS011;9931;51.458;7.256;2023-12-20T05:19:21;21.67;;;1.83;;
19569;SDS011;9931;51.458;7.256;2023-12-20T05:21:46;29.92;;;2.40;;
19569;SDS011;9931;51.458;7.256;2023-12-20T05:24:11;6.60;;;0.83;;
19569;SDS011;9931;51.458;7.256;2023-12-20T05:26:37;8.35;;;0.90;;
19569;SDS011;9931;51.458;7.256;2023-12-20T05:29:02;17.08;;;1.52;;
19569;SDS011;9931;51.458;7.256;2023-12-20T05:31:27;29.93;;;2.40;;
19569;SDS011;9931;51.458;7.256;2023-12-20T05:33:52;24.55;;;2.13;;
19569;SDS011;9931;51.458;7.256;2023-12-20T05:36:18;27.47;;;2.33;;
19569;SDS011;9931;51.458;7.256;2023-12-20T05:38:43;16.23;;;1.50;;
19569;SDS011;9931;51.458;7.256;2023-12-20T05:41:08;16.27;;;1.45;;
19569;SDS011;9931;51.458;7.256;2023-12-20T05:43:33;9.40;;;1.00;;
19569;SDS011;9931;51.458;7.256;2023-12-20T05:45:59;13.90;;;1.35;;
19569;SDS011;9931;51.458;7.256;2023-12-20T05:48:24;23.00;;;2.00;;
19569;SDS011;9931;51.458;7.256;2023-12-20T05:50:49;15.57;;;1.50;;
19569;SDS011;9931;51.458;7.256;2023-12-20T05:53:15;14.05;;;1.33;;
19569;SDS011;9931;51.458;7.256;2023-12-20T05:55:40;19.20;;;1.73;;
19569;SDS011;9931;51.458;7.256;2023-12-20T05:58:05;25.52;;;2.15;;
19569;SDS011;9931;51.458;7.256;2023-12-20T06:00:30;20.80;;;1.83;;
19569;SDS011;9931;51.458;7.256;2023-12-20T06:02:56;19.48;;;1.80;;
19569;SDS011;9931;51.458;7.256;2023-12-20T06:05:21;4.40;;;0.63;;
19569;SDS011;9931;51.458;7.256;2023-12-20T06:07:46;15.30;;;1.42;;
19569;SDS011;9931;51.458;7.256;2023-12-20T06:10:13;55.45;;;4.43;;
19569;SDS011;9931;51.458;7.256;2023-12-20T06:12:38;20.35;;;1.83;;
19569;SDS011;9931;51.458;7.256;2023-12-20T06:15:04;14.95;;;1.40;;
19569;SDS011;9931;51.458;7.256;2023-12-20T06:17:29;19.20;;;1.75;;
19569;SDS011;9931;51.458;7.256;2023-12-20T06:19:56;16.45;;;1.48;;
19569;SDS011;9931;51.458;7.256;2023-12-20T06:22:21;19.63;;;1.77;;
19569;SDS011;9931;51.458;7.256;2023-12-20T06:24:46;11.13;;;1.10;;
19569;SDS011;9931;51.458;7.256;2023-12-20T06:27:11;22.90;;;1.98;;
19569;SDS011;9931;51.458;7.256;2023-12-20T06:29:36;18.80;;;1.65;;
19569;SDS011;9931;51.458;7.256;2023-12-20T06:32:02;26.07;;;2.17;;
19569;SDS011;9931;51.458;7.256;2023-12-20T06:34:27;15.35;;;1.40;;
19569;SDS011;9931;51.458;7.256;2023-12-20T06:36:52;6.33;;;0.70;;
19569;SDS011;9931;51.458;7.256;2023-12-20T06:39:17;16.55;;;1.52;;
19569;SDS011;9931;51.458;7.256;2023-12-20T06:41:42;19.02;;;1.65;;
19569;SDS011;9931;51.458;7.256;2023-12-20T06:44:08;20.65;;;1.77;;
19569;SDS011;9931;51.458;7.256;2023-12-20T06:46:33;13.73;;;1.23;;
19569;SDS011;9931;51.458;7.256;2023-12-20T06:48:58;27.65;;;2.15;;
19569;SDS011;9931;51.458;7.256;2023-12-20T06:51:23;17.83;;;1.63;;
19569;SDS011;9931;51.458;7.256;2023-12-20T06:53:50;25.00;;;2.15;;
19569;SDS011;9931;51.458;7.256;2023-12-20T06:56:15;19.50;;;1.73;;
19569;SDS011;9931;51.458;7.256;2023-12-20T06:58:41;9.85;;;1.10;;
19569;SDS011;9931;51.458;7.256;2023-12-20T07:01:10;7.10;;;0.80;;
19569;SDS011;9931;51.458;7.256;2023-12-20T07:03:35;11.95;;;1.17;;
19569;SDS011;9931;51.458;7.256;2023-12-20T07:06:00;19.80;;;1.73;;
19569;SDS011;9931;51.458;7.256;2023-12-20T07:08:26;26.35;;;2.25;;
19569;SDS011;9931;51.458;7.256;2023-12-20T07:10:51;10.20;;;2.35;;
19569;SDS011;9931;51.458;7.256;2023-12-20T07:13:16;11.52;;;1.13;;
19569;SDS011;9931;51.458;7.256;2023-12-20T07:15:41;10.07;;;1.00;;
19569;SDS011;9931;51.458;7.256;2023-12-20T07:18:06;11.35;;;1.20;;
19569;SDS011;9931;51.458;7.256;2023-12-20T07:20:32;17.02;;;1.60;;
19569;SDS011;9931;51.458;7.256;2023-12-20T07:22:57;26.73;;;2.28;;
19569;SDS011;9931;51.458;7.256;2023-12-20T07:25:22;19.67;;;1.65;;
19569;SDS011;9931;51.458;7.256;2023-12-20T07:27:47;15.95;;;1.45;;
19569;SDS011;9931;51.458;7.256;2023-12-20T07:30:13;46.70;;;4.20;;
19569;SDS011;9931;51.458;7.256;2023-12-20T07:32:38;23.30;;;9.38;;
19569;SDS011;9931;51.458;7.256;2023-12-20T07:35:03;19.47;;;7.77;;
19569;SDS011;9931;51.458;7.256;2023-12-20T07:37:28;7.22;;;6.15;;
19569;SDS011;9931;51.458;7.256;2023-12-20T07:39:53;19.13;;;6.95;;
19569;SDS011;9931;51.458;7.256;2023-12-20T07:42:19;22.27;;;4.93;;
19569;SDS011;9931;51.458;7.256;2023-12-20T07:44:44;20.60;;;6.97;;
19569;SDS011;9931;51.458;7.256;2023-12-20T07:47:09;24.33;;;6.85;;
19569;SDS011;9931;51.458;7.256;2023-12-20T07:49:34;21.53;;;6.77;;
19569;SDS011;9931;51.458;7.256;2023-12-20T07:51:59;20.50;;;7.27;;
19569;SDS011;9931;51.458;7.256;2023-12-20T07:54:24;21.65;;;7.05;;
19569;SDS011;9931;51.458;7.256;2023-12-20T07:56:50;48.35;;;8.90;;
19569;SDS011;9931;51.458;7.256;2023-12-20T07:59:15;16.27;;;8.93;;
19569;SDS011;9931;51.458;7.256;2023-12-20T08:01:40;23.50;;;7.47;;
19569;SDS011;9931;51.458;7.256;2023-12-20T08:04:05;15.33;;;7.37;;
19569;SDS011;9931;51.458;7.256;2023-12-20T08:06:30;16.55;;;7.60;;
19569;SDS011;9931;51.458;7.256;2023-12-20T08:08:55;15.55;;;7.22;;
19569;SDS011;9931;51.458;7.256;2023-12-20T08:11:21;17.70;;;7.60;;
19569;SDS011;9931;51.458;7.256;2023-12-20T08:13:46;20.95;;;8.23;;
19569;SDS011;9931;51.458;7.256;2023-12-20T08:16:11;31.52;;;7.35;;
19569;SDS011;9931;51.458;7.256;2023-12-20T08:18:38;8.75;;;8.23;;
19569;SDS011;9931;51.458;7.256;2023-12-20T08:21:03;28.52;;;9.40;;
19569;SDS011;9931;51.458;7.256;2023-12-20T08:23:28;15.88;;;8.30;;
19569;SDS011;9931;51.458;7.256;2023-12-20T08:25:54;31.40;;;4.03;;
19569;SDS011;9931;51.458;7.256;2023-12-20T08:28:19;19.83;;;7.60;;
19569;SDS011;9931;51.458;7.256;2023-12-20T08:30:44;21.85;;;7.78;;
19569;SDS011;9931;51.458;7.256;2023-12-20T08:33:09;9.20;;;7.90;;
19569;SDS011;9931;51.458;7.256;2023-12-20T08:35:38;10.80;;;7.00;;
19569;SDS011;9931;51.458;7.256;2023-12-20T08:38:03;34.72;;;9.27;;
19569;SDS011;9931;51.458;7.256;2023-12-20T08:40:29;21.05;;;8.73;;
19569;SDS011;9931;51.458;7.256;2023-12-20T08:42:54;21.88;;;7.60;;
19569;SDS011;9931;51.458;7.256;2023-12-20T08:45:20;17.70;;;7.25;;
19569;SDS011;9931;51.458;7.256;2023-12-20T08:47:45;19.67;;;8.20;;
19569;SDS011;9931;51.458;7.256;2023-12-20T08:50:10;29.15;;;8.48;;
19569;SDS011;9931;51.458;7.256;2023-12-20T08:52:35;16.02;;;7.57;;
19569;SDS011;9931;51.458;7.256;2023-12-20T08:55:01;18.13;;;8.30;;
19569;SDS011;9931;51.458;7.256;2023-12-20T08:57:26;18.77;;;9.63;;
19569;SDS011;9931;51.458;7.256;2023-12-20T08:59:51;25.45;;;7.85;;
19569;SDS011;9931;51.458;7.256;2023-12-20T09:02:16;19.90;;;8.57;;
19569;SDS011;9931;51.458;7.256;2023-12-20T09:04:42;15.25;;;8.75;;
19569;SDS011;9931;51.458;7.256;2023-12-20T09:07:20;17.50;;;7.97;;
19569;SDS011;9931;51.458;7.256;2023-12-20T09:09:45;18.55;;;7.85;;
19569;SDS011;9931;51.458;7.256;2023-12-20T09:12:10;17.45;;;1.60;;
19569;SDS011;9931;51.458;7.256;2023-12-20T09:14:35;19.02;;;7.97;;
19569;SDS011;9931;51.458;7.256;2023-12-20T09:17:00;21.20;;;7.30;;
19569;SDS011;9931;51.458;7.256;2023-12-20T09:19:26;24.20;;;10.02;;
19569;SDS011;9931;51.458;7.256;2023-12-20T09:21:51;19.90;;;9.07;;
19569;SDS011;9931;51.458;7.256;2023-12-20T09:24:16;18.92;;;9.43;;
19569;SDS011;9931;51.458;7.256;2023-12-20T09:26:41;19.40;;;8.85;;
19569;SDS011;9931;51.458;7.256;2023-12-20T09:29:07;16.35;;;8.70;;
19569;SDS011;9931;51.458;7.256;2023-12-20T09:31:36;22.83;;;8.93;;
19569;SDS011;9931;51.458;7.256;2023-12-20T09:34:01;20.83;;;8.70;;
19569;SDS011;9931;51.458;7.256;2023-12-20T09:36:28;18.80;;;9.27;;
19569;SDS011;9931;51.458;7.256;2023-12-20T09:38:53;21.77;;;9.75;;
19569;SDS011;9931;51.458;7.256;2023-12-20T09:41:19;18.05;;;12.13;;
19569;SDS011;9931;51.458;7.256;2023-12-20T09:43:44;24.53;;;10.47;;
19569;SDS011;9931;51.458;7.256;2023-12-20T09:46:09;26.17;;;10.17;;
19569;SDS011;9931;51.458;7.256;2023-12-20T09:48:36;21.58;;;9.40;;
19569;SDS011;9931;51.458;7.256;2023-12-20T09:51:01;18.65;;;7.30;;
19569;SDS011;9931;51.458;7.256;2023-12-20T09:53:26;20.33;;;7.50;;
19569;SDS011;9931;51.458;7.256;2023-12-20T09:56:00;18.83;;;3.53;;
19569;SDS011;9931;51.458;7.256;2023-12-20T09:58:26;15.70;;;8.02;;
19569;SDS011;9931;51.458;7.256;2023-12-20T10:00:51;17.90;;;8.02;;
19569;SDS011;9931;51.458;7.256;2023-12-20T10:03:17;13.00;;;6.95;;
19569;SDS011;9931;51.458;7.256;2023-12-20T10:05:45;14.35;;;4.18;;
19569;SDS011;9931;51.458;7.256;2023-12-20T10:08:11;20.40;;;18.42;;
19569;SDS011;9931;51.458;7.256;2023-12-20T10:10:37;25.05;;;8.70;;
19569;SDS011;9931;51.458;7.256;2023-12-20T10:13:03;36.73;;;8.23;;
19569;SDS011;9931;51.458;7.256;2023-12-20T10:15:28;27.75;;;7.80;;
19569;SDS011;9931;51.458;7.256;2023-12-20T10:17:53;19.23;;;8.70;;
19569;SDS011;9931;51.458;7.256;2023-12-20T10:20:19;46.80;;;9.38;;
19569;SDS011;9931;51.458;7.256;2023-12-20T10:22:44;9.67;;;7.50;;
19569;SDS011;9931;51.458;7.256;2023-12-20T10:25:10;8.25;;;6.25;;
19569;SDS011;9931;51.458;7.256;2023-12-20T10:27:35;15.37;;;7.00;;
19569;SDS011;9931;51.458;7.256;2023-12-20T10:30:00;18.50;;;6.63;;
19569;SDS011;9931;51.458;7.256;2023-12-20T10:32:26;18.95;;;11.32;;
19569;SDS011;9931;51.458;7.256;2023-12-20T10:34:52;20.70;;;6.43;;
19569;SDS011;9931;51.458;7.256;2023-12-20T10:37:17;21.92;;;7.60;;
19569;SDS011;9931;51.458;7.256;2023-12-20T10:39:43;19.27;;;17.55;;
19569;SDS011;9931;51.458;7.256;2023-12-20T10:42:09;15.13;;;7.10;;
19569;SDS011;9931;51.458;7.256;2023-12-20T10:44:36;20.38;;;7.35;;
19569;SDS011;9931;51.458;7.256;2023-12-20T10:47:01;25.08;;;9.10;;
19569;SDS011;9931;51.458;7.256;2023-12-20T10:49:26;18.13;;;8.70;;
19569;SDS011;9931;51.458;7.256;2023-12-20T10:51:52;20.38;;;8.00;;
19569;SDS011;9931;51.458;7.256;2023-12-20T10:54:19;15.77;;;7.88;;
19569;SDS011;9931;51.458;7.256;2023-12-20T10:56:44;16.10;;;4.25;;
19569;SDS011;9931;51.458;7.256;2023-12-20T10:59:10;14.45;;;3.17;;
19569;SDS011;9931;51.458;7.256;2023-12-20T11:01:36;15.20;;;6.65;;
19569;SDS011;9931;51.458;7.256;2023-12-20T11:04:03;18.85;;;6.75;;
19569;SDS011;9931;51.458;7.256;2023-12-20T11:06:36;19.55;;;9.25;;
19569;SDS011;9931;51.458;7.256;2023-12-20T11:11:58;18.08;;;7.55;;
19569;SDS011;9931;51.458;7.256;2023-12-20T11:17:07;14.80;;;1.55;;
19569;SDS011;9931;51.458;7.256;2023-12-20T11:19:35;7.03;;;1.00;;
19569;SDS011;9931;51.458;7.256;2023-12-20T11:22:00;5.88;;;0.93;;
19569;SDS011;9931;51.458;7.256;2023-12-20T11:24:25;14.73;;;1.42;;
19569;SDS011;9931;51.458;7.256;2023-12-20T11:26:50;14.90;;;1.37;;
19569;SDS011;9931;51.458;7.256;2023-12-20T11:29:29;22.50;;;13.57;;
19569;SDS011;9931;51.458;7.256;2023-12-20T11:31:55;23.48;;;12.25;;
19569;SDS011;9931;51.458;7.256;2023-12-20T11:34:20;29.83;;;13.93;;
19569;SDS011;9931;51.458;7.256;2023-12-20T11:36:45;28.35;;;14.90;;
19569;SDS011;9931;51.458;7.256;2023-12-20T11:39:10;27.13;;;18.80;;
19569;SDS011;9931;51.458;7.256;2023-12-20T11:41:36;49.10;;;44.95;;
19569;SDS011;9931;51.458;7.256;2023-12-20T11:44:01;15.18;;;13.93;;
19569;SDS011;9931;51.458;7.256;2023-12-20T11:46:29;35.05;;;31.10;;
19569;SDS011;9931;51.458;7.256;2023-12-20T11:48:55;26.20;;;16.65;;
19569;SDS011;9931;51.458;7.256;2023-12-20T11:51:21;19.43;;;12.10;;
19569;SDS011;9931;51.458;7.256;2023-12-20T11:53:51;21.47;;;14.17;;
19569;SDS011;9931;51.458;7.256;2023-12-20T11:56:16;18.80;;;11.65;;
19569;SDS011;9931;51.458;7.256;2023-12-20T11:58:41;26.30;;;12.40;;
19569;SDS011;9931;51.458;7.256;2023-12-20T12:01:07;23.45;;;13.75;;
19569;SDS011;9931;51.458;7.256;2023-12-20T12:03:35;24.65;;;10.88;;
19569;SDS011;9931;51.458;7.256;2023-12-20T12:06:01;22.67;;;13.67;;
19569;SDS011;9931;51.458;7.256;2023-12-20T12:08:28;8.40;;;7.57;;
19569;SDS011;9931;51.458;7.256;2023-12-20T12:10:53;23.03;;;9.60;;
19569;SDS011;9931;51.458;7.256;2023-12-20T12:13:18;15.48;;;9.55;;
19569;SDS011;9931;51.458;7.256;2023-12-20T12:15:43;9.35;;;7.95;;
19569;SDS011;9931;51.458;7.256;2023-12-20T12:18:09;6.40;;;4.55;;
19569;SDS011;9931;51.458;7.256;2023-12-20T12:20:35;17.45;;;7.90;;
19569;SDS011;9931;51.458;7.256;2023-12-20T12:23:01;18.50;;;9.00;;
19569;SDS011;9931;51.458;7.256;2023-12-20T12:25:26;14.25;;;7.22;;
19569;SDS011;9931;51.458;7.256;2023-12-20T12:27:52;21.48;;;4.65;;
19569;SDS011;9931;51.458;7.256;2023-12-20T12:30:17;63.05;;;15.60;;
19569;SDS011;9931;51.458;7.256;2023-12-20T12:32:46;24.75;;;9.32;;
19569;SDS011;9931;51.458;7.256;2023-12-20T12:35:11;33.17;;;29.60;;
19569;SDS011;9931;51.458;7.256;2023-12-20T12:37:37;21.77;;;10.20;;
19569;SDS011;9931;51.458;7.256;2023-12-20T12:40:04;30.60;;;27.65;;
19569;SDS011;9931;51.458;7.256;2023-12-20T12:42:30;21.45;;;11.85;;
19569;SDS011;9931;51.458;7.256;2023-12-20T12:44:55;17.27;;;13.83;;
19569;SDS011;9931;51.458;7.256;2023-12-20T12:47:21;27.98;;;15.65;;
19569;SDS011;9931;51.458;7.256;2023-12-20T12:49:47;16.77;;;7.45;;
19569;SDS011;9931;51.458;7.256;2023-12-20T12:52:12;4.55;;;4.25;;
19569;SDS011;9931;51.458;7.256;2023-12-20T12:54:37;29.20;;;13.95;;
19569;SDS011;9931;51.458;7.256;2023-12-20T12:57:02;35.47;;;32.97;;
19569;SDS011;9931;51.458;7.256;2023-12-20T12:59:28;21.23;;;11.43;;
19569;SDS011;9931;51.458;7.256;2023-12-20T13:01:53;26.98;;;13.88;;
19569;SDS011;9931;51.458;7.256;2023-12-20T13:04:18;16.42;;;1.67;;
19569;SDS011;9931;51.458;7.256;2023-12-20T13:06:43;19.23;;;1.75;;
19569;SDS011;9931;51.458;7.256;2023-12-20T13:09:09;14.60;;;1.50;;
19569;SDS011;9931;51.458;7.256;2023-12-20T13:11:37;14.30;;;1.52;;
19569;SDS011;9931;51.458;7.256;2023-12-20T13:14:03;4.47;;;0.90;;
19569;SDS011;9931;51.458;7.256;2023-12-20T13:16:28;22.65;;;2.20;;
19569;SDS011;9931;51.458;7.256;2023-12-20T13:18:54;16.63;;;1.67;;
19569;SDS011;9931;51.458;7.256;2023-12-20T13:21:19;14.85;;;1.63;;
19569;SDS011;9931;51.458;7.256;2023-12-20T13:23:44;15.30;;;1.75;;
19569;SDS011;9931;51.458;7.256;2023-12-20T13:26:09;29.07;;;2.50;;
19569;SDS011;9931;51.458;7.256;2023-12-20T13:28:34;10.87;;;1.20;;
19569;SDS011;9931;51.458;7.256;2023-12-20T13:30:59;21.77;;;2.15;;
19569;SDS011;9931;51.458;7.256;2023-12-20T13:33:25;14.52;;;1.52;;
19569;SDS011;9931;51.458;7.256;2023-12-20T13:35:50;15.88;;;1.67;;
19569;SDS011;9931;51.458;7.256;2023-12-20T13:38:15;16.15;;;1.70;;
19569;SDS011;9931;51.458;7.256;2023-12-20T13:40:40;19.17;;;3.40;;
19569;SDS011;9931;51.458;7.256;2023-12-20T13:43:06;14.00;;;1.45;;
19569;SDS011;9931;51.458;7.256;2023-12-20T13:45:31;12.00;;;1.30;;
19569;SDS011;9931;51.458;7.256;2023-12-20T13:47:56;14.90;;;1.55;;
19569;SDS011;9931;51.458;7.256;2023-12-20T13:50:21;52.22;;;3.90;;
19569;SDS011;9931;51.458;7.256;2023-12-20T13:52:47;16.10;;;1.67;;
19569;SDS011;9931;51.458;7.256;2023-12-20T13:55:12;8.88;;;1.25;;
19569;SDS011;9931;51.458;7.256;2023-12-20T13:57:37;26.08;;;2.28;;
19569;SDS011;9931;51.458;7.256;2023-12-20T14:00:04;14.57;;;1.50;;
19569;SDS011;9931;51.458;7.256;2023-12-20T14:02:29;16.85;;;1.60;;
19569;SDS011;9931;51.458;7.256;2023-12-20T14:04:55;4.47;;;0.80;;
19569;SDS011;9931;51.458;7.256;2023-12-20T14:07:20;9.32;;;1.10;;
19569;SDS011;9931;51.458;7.256;2023-12-20T14:09:45;5.00;;;0.80;;
19569;SDS011;9931;51.458;7.256;2023-12-20T14:12:11;14.07;;;1.57;;
19569;SDS011;9931;51.458;7.256;2023-12-20T14:14:36;24.02;;;2.25;;
19569;SDS011;9931;51.458;7.256;2023-12-20T14:17:01;5.60;;;0.77;;
19569;SDS011;9931;51.458;7.256;2023-12-20T14:19:27;13.20;;;1.38;;
19569;SDS011;9931;51.458;7.256;2023-12-20T14:21:52;18.50;;;1.80;;
19569;SDS011;9931;51.458;7.256;2023-12-20T14:24:17;21.50;;;2.03;;
19569;SDS011;9931;51.458;7.256;2023-12-20T14:26:42;20.23;;;2.00;;
19569;SDS011;9931;51.458;7.256;2023-12-20T14:29:07;16.27;;;2.33;;
19569;SDS011;9931;51.458;7.256;2023-12-20T14:31:33;62.20;;;4.90;;
19569;SDS011;9931;51.458;7.256;2023-12-20T14:33:58;14.25;;;1.60;;
19569;SDS011;9931;51.458;7.256;2023-12-20T14:36:24;13.32;;;1.45;;
19569;SDS011;9931;51.458;7.256;2023-12-20T14:38:49;15.60;;;1.65;;
19569;SDS011;9931;51.458;7.256;2023-12-20T14:41:15;15.13;;;1.70;;